sensor_id;sensor_type;location;lat;lon;timestamp;P1;durP1;ratioP1;P2;durP2;ratioP2
43311;SDS011;30041;48.300;16.352;2023-11-22T00:01:59;1.83;;;1.00;;
43311;SDS011;30041;48.300;16.352;2023-11-22T00:04:25;0.98;;;0.70;;
43311;SDS011;30041;48.300;16.352;2023-11-22T00:06:50;1.20;;;0.80;;
43311;SDS011;30041;48.300;16.352;2023-11-22T00:09:15;1.30;;;0.88;;
43311;SDS011;30041;48.300;16.352;2023-11-22T00:11:41;2.33;;;1.23;;
43311;SDS011;30041;48.300;16.352;2023-11-22T00:14:06;1.90;;;1.02;;
43311;SDS011;30041;48.300;16.352;2023-11-22T00:16:32;1.38;;;0.90;;
43311;SDS011;30041;48.300;16.352;2023-11-22T00:18:57;1.48;;;0.90;;
43311;SDS011;30041;48.300;16.352;2023-11-22T00:21:22;2.13;;;0.90;;
43311;SDS011;30041;48.300;16.352;2023-11-22T00:23:50;1.65;;;0.93;;
43311;SDS011;30041;48.300;16.352;2023-11-22T00:26:15;1.45;;;0.90;;
43311;SDS011;30041;48.300;16.352;2023-11-22T00:28:41;1.83;;;0.90;;
43311;SDS011;30041;48.300;16.352;2023-11-22T00:31:06;1.27;;;0.80;;
43311;SDS011;30041;48.300;16.352;2023-11-22T00:33:32;1.73;;;0.90;;
43311;SDS011;30041;48.300;16.352;2023-11-22T00:35:57;1.55;;;0.90;;
43311;SDS011;30041;48.300;16.352;2023-11-22T00:38:22;1.17;;;0.80;;
43311;SDS011;30041;48.300;16.352;2023-11-22T00:40:48;1.67;;;1.05;;
43311;SDS011;30041;48.300;16.352;2023-11-22T00:43:13;1.92;;;0.90;;
43311;SDS011;30041;48.300;16.352;2023-11-22T00:45:38;1.60;;;0.93;;
43311;SDS011;30041;48.300;16.352;2023-11-22T00:48:04;2.33;;;0.90;;
43311;SDS011;30041;48.300;16.352;2023-11-22T00:50:29;1.40;;;0.80;;
43311;SDS011;30041;48.300;16.352;2023-11-22T00:52:55;1.17;;;0.80;;
43311;SDS011;30041;48.300;16.352;2023-11-22T00:55:20;1.30;;;0.90;;
43311;SDS011;30041;48.300;16.352;2023-11-22T00:57:46;1.30;;;0.80;;
43311;SDS011;30041;48.300;16.352;2023-11-22T01:00:11;1.20;;;0.88;;
43311;SDS011;30041;48.300;16.352;2023-11-22T01:02:36;1.70;;;0.98;;
43311;SDS011;30041;48.300;16.352;2023-11-22T01:05:02;1.65;;;1.00;;
43311;SDS011;30041;48.300;16.352;2023-11-22T01:07:27;1.35;;;0.80;;
43311;SDS011;30041;48.300;16.352;2023-11-22T01:09:53;1.73;;;1.00;;
43311;SDS011;30041;48.300;16.352;2023-11-22T01:12:18;1.02;;;0.75;;
43311;SDS011;30041;48.300;16.352;2023-11-22T01:14:43;0.98;;;0.77;;
43311;SDS011;30041;48.300;16.352;2023-11-22T01:17:09;1.77;;;0.90;;
43311;SDS011;30041;48.300;16.352;2023-11-22T01:19:34;1.30;;;0.88;;
43311;SDS011;30041;48.300;16.352;2023-11-22T01:21:59;1.85;;;0.95;;
43311;SDS011;30041;48.300;16.352;2023-11-22T01:24:25;1.30;;;0.70;;
43311;SDS011;30041;48.300;16.352;2023-11-22T01:26:50;1.05;;;0.73;;
43311;SDS011;30041;48.300;16.352;2023-11-22T01:29:15;1.30;;;0.90;;
43311;SDS011;30041;48.300;16.352;2023-11-22T01:31:41;1.00;;;0.70;;
43311;SDS011;30041;48.300;16.352;2023-11-22T01:34:06;2.67;;;0.90;;
43311;SDS011;30041;48.300;16.352;2023-11-22T01:36:32;1.50;;;0.90;;
43311;SDS011;30041;48.300;16.352;2023-11-22T01:38:57;1.45;;;0.80;;
43311;SDS011;30041;48.300;16.352;2023-11-22T01:41:22;1.13;;;0.60;;
43311;SDS011;30041;48.300;16.352;2023-11-22T01:43:48;1.15;;;0.70;;
43311;SDS011;30041;48.300;16.352;2023-11-22T01:46:23;1.27;;;0.90;;
43311;SDS011;30041;48.300;16.352;2023-11-22T01:48:49;2.05;;;0.95;;
43311;SDS011;30041;48.300;16.352;2023-11-22T01:51:15;1.25;;;0.80;;
43311;SDS011;30041;48.300;16.352;2023-11-22T01:53:41;0.90;;;0.70;;
43311;SDS011;30041;48.300;16.352;2023-11-22T01:56:07;1.40;;;0.80;;
43311;SDS011;30041;48.300;16.352;2023-11-22T01:58:33;1.20;;;0.85;;
43311;SDS011;30041;48.300;16.352;2023-11-22T02:00:58;1.30;;;0.80;;
43311;SDS011;30041;48.300;16.352;2023-11-22T02:03:25;1.60;;;0.77;;
43311;SDS011;30041;48.300;16.352;2023-11-22T02:05:50;1.10;;;0.75;;
43311;SDS011;30041;48.300;16.352;2023-11-22T02:08:16;1.50;;;0.80;;
43311;SDS011;30041;48.300;16.352;2023-11-22T02:10:41;1.02;;;0.52;;
43311;SDS011;30041;48.300;16.352;2023-11-22T02:13:07;1.25;;;0.80;;
43311;SDS011;30041;48.300;16.352;2023-11-22T02:15:36;0.80;;;0.63;;
43311;SDS011;30041;48.300;16.352;2023-11-22T02:18:02;1.08;;;0.70;;
43311;SDS011;30041;48.300;16.352;2023-11-22T02:20:28;1.10;;;0.80;;
43311;SDS011;30041;48.300;16.352;2023-11-22T02:22:57;0.75;;;0.60;;
43311;SDS011;30041;48.300;16.352;2023-11-22T02:25:26;1.17;;;0.82;;
43311;SDS011;30041;48.300;16.352;2023-11-22T02:27:51;0.98;;;0.70;;
43311;SDS011;30041;48.300;16.352;2023-11-22T02:30:17;1.73;;;0.80;;
43311;SDS011;30041;48.300;16.352;2023-11-22T02:32:42;0.90;;;0.60;;
43311;SDS011;30041;48.300;16.352;2023-11-22T02:35:08;1.13;;;0.70;;
43311;SDS011;30041;48.300;16.352;2023-11-22T02:37:34;1.20;;;0.85;;
43311;SDS011;30041;48.300;16.352;2023-11-22T02:42:37;0.80;;;0.60;;
43311;SDS011;30041;48.300;16.352;2023-11-22T02:45:02;1.30;;;0.70;;
43311;SDS011;30041;48.300;16.352;2023-11-22T02:47:28;1.15;;;0.63;;
43311;SDS011;30041;48.300;16.352;2023-11-22T02:49:53;1.30;;;0.70;;
43311;SDS011;30041;48.300;16.352;2023-11-22T02:52:19;0.52;;;0.50;;
43311;SDS011;30041;48.300;16.352;2023-11-22T02:54:44;0.88;;;0.60;;
43311;SDS011;30041;48.300;16.352;2023-11-22T02:57:10;1.02;;;0.60;;
43311;SDS011;30041;48.300;16.352;2023-11-22T02:59:35;1.17;;;0.60;;
43311;SDS011;30041;48.300;16.352;2023-11-22T03:02:00;1.20;;;0.80;;
43311;SDS011;30041;48.300;16.352;2023-11-22T03:04:26;1.17;;;0.70;;
43311;SDS011;30041;48.300;16.352;2023-11-22T03:06:51;1.38;;;0.70;;
43311;SDS011;30041;48.300;16.352;2023-11-22T03:09:17;1.30;;;0.73;;
43311;SDS011;30041;48.300;16.352;2023-11-22T03:11:42;1.10;;;0.77;;
43311;SDS011;30041;48.300;16.352;2023-11-22T03:14:08;0.80;;;0.60;;
43311;SDS011;30041;48.300;16.352;2023-11-22T03:16:33;1.00;;;0.60;;
43311;SDS011;30041;48.300;16.352;2023-11-22T03:18:58;1.25;;;0.60;;
43311;SDS011;30041;48.300;16.352;2023-11-22T03:21:24;0.80;;;0.60;;
43311;SDS011;30041;48.300;16.352;2023-11-22T03:23:49;0.80;;;0.70;;
43311;SDS011;30041;48.300;16.352;2023-11-22T03:26:14;0.90;;;0.80;;
43311;SDS011;30041;48.300;16.352;2023-11-22T03:28:40;0.82;;;0.70;;
43311;SDS011;30041;48.300;16.352;2023-11-22T03:31:05;1.02;;;0.73;;
43311;SDS011;30041;48.300;16.352;2023-11-22T03:33:30;1.08;;;0.77;;
43311;SDS011;30041;48.300;16.352;2023-11-22T03:35:56;0.95;;;0.60;;
43311;SDS011;30041;48.300;16.352;2023-11-22T03:38:24;0.80;;;0.60;;
43311;SDS011;30041;48.300;16.352;2023-11-22T03:40:50;0.90;;;0.70;;
43311;SDS011;30041;48.300;16.352;2023-11-22T03:43:15;0.95;;;0.73;;
43311;SDS011;30041;48.300;16.352;2023-11-22T03:45:41;1.38;;;0.80;;
43311;SDS011;30041;48.300;16.352;2023-11-22T03:48:06;1.25;;;0.70;;
43311;SDS011;30041;48.300;16.352;2023-11-22T03:50:31;1.02;;;0.60;;
43311;SDS011;30041;48.300;16.352;2023-11-22T03:52:57;0.80;;;0.50;;
43311;SDS011;30041;48.300;16.352;2023-11-22T03:55:22;0.95;;;0.65;;
43311;SDS011;30041;48.300;16.352;2023-11-22T03:57:48;0.95;;;0.55;;
43311;SDS011;30041;48.300;16.352;2023-11-22T04:00:13;0.77;;;0.57;;
43311;SDS011;30041;48.300;16.352;2023-11-22T04:02:39;0.90;;;0.63;;
43311;SDS011;30041;48.300;16.352;2023-11-22T04:05:05;0.60;;;0.50;;
43311;SDS011;30041;48.300;16.352;2023-11-22T04:07:30;1.00;;;0.70;;
43311;SDS011;30041;48.300;16.352;2023-11-22T04:09:55;1.00;;;0.60;;
43311;SDS011;30041;48.300;16.352;2023-11-22T04:12:21;0.50;;;0.40;;
43311;SDS011;30041;48.300;16.352;2023-11-22T04:14:46;1.05;;;0.70;;
43311;SDS011;30041;48.300;16.352;2023-11-22T04:17:12;1.00;;;0.60;;
43311;SDS011;30041;48.300;16.352;2023-11-22T04:19:37;0.55;;;0.40;;
43311;SDS011;30041;48.300;16.352;2023-11-22T04:22:05;0.82;;;0.60;;
43311;SDS011;30041;48.300;16.352;2023-11-22T04:24:30;0.85;;;0.50;;
43311;SDS011;30041;48.300;16.352;2023-11-22T04:26:56;0.60;;;0.50;;
43311;SDS011;30041;48.300;16.352;2023-11-22T04:29:21;0.80;;;0.57;;
43311;SDS011;30041;48.300;16.352;2023-11-22T04:31:47;1.58;;;0.50;;
43311;SDS011;30041;48.300;16.352;2023-11-22T04:34:12;1.00;;;0.57;;
43311;SDS011;30041;48.300;16.352;2023-11-22T04:36:37;0.50;;;0.50;;
43311;SDS011;30041;48.300;16.352;2023-11-22T04:39:03;0.82;;;0.47;;
43311;SDS011;30041;48.300;16.352;2023-11-22T04:41:28;0.52;;;0.43;;
43311;SDS011;30041;48.300;16.352;2023-11-22T04:43:53;1.08;;;0.50;;
43311;SDS011;30041;48.300;16.352;2023-11-22T04:46:24;0.70;;;0.50;;
43311;SDS011;30041;48.300;16.352;2023-11-22T04:48:50;0.98;;;0.60;;
43311;SDS011;30041;48.300;16.352;2023-11-22T04:51:16;0.80;;;0.52;;
43311;SDS011;30041;48.300;16.352;2023-11-22T04:53:42;1.02;;;0.63;;
43311;SDS011;30041;48.300;16.352;2023-11-22T04:56:07;0.80;;;0.55;;
43311;SDS011;30041;48.300;16.352;2023-11-22T04:58:35;0.70;;;0.50;;
43311;SDS011;30041;48.300;16.352;2023-11-22T05:01:01;1.27;;;0.63;;
43311;SDS011;30041;48.300;16.352;2023-11-22T05:03:26;1.10;;;0.75;;
43311;SDS011;30041;48.300;16.352;2023-11-22T05:05:52;0.60;;;0.50;;
43311;SDS011;30041;48.300;16.352;2023-11-22T05:08:17;0.82;;;0.50;;
43311;SDS011;30041;48.300;16.352;2023-11-22T05:10:43;1.45;;;0.70;;
43311;SDS011;30041;48.300;16.352;2023-11-22T05:13:08;2.95;;;0.70;;
43311;SDS011;30041;48.300;16.352;2023-11-22T05:15:33;1.05;;;0.60;;
43311;SDS011;30041;48.300;16.352;2023-11-22T05:17:59;1.50;;;0.88;;
43311;SDS011;30041;48.300;16.352;2023-11-22T05:20:24;1.70;;;0.88;;
43311;SDS011;30041;48.300;16.352;2023-11-22T05:22:50;1.27;;;0.70;;
43311;SDS011;30041;48.300;16.352;2023-11-22T05:25:15;0.88;;;0.60;;
43311;SDS011;30041;48.300;16.352;2023-11-22T05:27:40;0.93;;;0.63;;
43311;SDS011;30041;48.300;16.352;2023-11-22T05:30:06;1.63;;;0.82;;
43311;SDS011;30041;48.300;16.352;2023-11-22T05:32:32;1.90;;;0.60;;
43311;SDS011;30041;48.300;16.352;2023-11-22T05:34:57;2.80;;;0.90;;
43311;SDS011;30041;48.300;16.352;2023-11-22T05:37:23;1.77;;;0.65;;
43311;SDS011;30041;48.300;16.352;2023-11-22T05:39:48;2.28;;;0.70;;
43311;SDS011;30041;48.300;16.352;2023-11-22T05:42:13;2.35;;;0.82;;
43311;SDS011;30041;48.300;16.352;2023-11-22T05:44:42;2.92;;;0.80;;
43311;SDS011;30041;48.300;16.352;2023-11-22T05:47:07;3.78;;;1.10;;
43311;SDS011;30041;48.300;16.352;2023-11-22T05:49:33;5.05;;;0.80;;
43311;SDS011;30041;48.300;16.352;2023-11-22T05:51:59;4.70;;;1.08;;
43311;SDS011;30041;48.300;16.352;2023-11-22T05:54:24;2.28;;;0.80;;
43311;SDS011;30041;48.300;16.352;2023-11-22T05:56:50;4.35;;;1.02;;
43311;SDS011;30041;48.300;16.352;2023-11-22T05:59:15;6.53;;;1.40;;
43311;SDS011;30041;48.300;16.352;2023-11-22T06:01:41;8.15;;;1.50;;
43311;SDS011;30041;48.300;16.352;2023-11-22T06:04:06;5.85;;;1.40;;
43311;SDS011;30041;48.300;16.352;2023-11-22T06:06:31;4.10;;;1.42;;
43311;SDS011;30041;48.300;16.352;2023-11-22T06:08:57;6.90;;;1.52;;
43311;SDS011;30041;48.300;16.352;2023-11-22T06:11:22;5.07;;;1.30;;
43311;SDS011;30041;48.300;16.352;2023-11-22T06:13:47;4.57;;;1.40;;
43311;SDS011;30041;48.300;16.352;2023-11-22T06:16:13;4.10;;;1.27;;
43311;SDS011;30041;48.300;16.352;2023-11-22T06:18:38;6.10;;;1.20;;
43311;SDS011;30041;48.300;16.352;2023-11-22T06:21:04;6.30;;;1.42;;
43311;SDS011;30041;48.300;16.352;2023-11-22T06:23:29;5.55;;;1.63;;
43311;SDS011;30041;48.300;16.352;2023-11-22T06:25:55;5.80;;;1.48;;
43311;SDS011;30041;48.300;16.352;2023-11-22T06:28:20;3.90;;;1.25;;
43311;SDS011;30041;48.300;16.352;2023-11-22T06:30:45;3.60;;;1.30;;
43311;SDS011;30041;48.300;16.352;2023-11-22T06:33:11;6.75;;;1.35;;
43311;SDS011;30041;48.300;16.352;2023-11-22T06:35:36;7.00;;;1.52;;
43311;SDS011;30041;48.300;16.352;2023-11-22T06:38:02;11.10;;;1.65;;
43311;SDS011;30041;48.300;16.352;2023-11-22T06:40:27;4.88;;;1.55;;
43311;SDS011;30041;48.300;16.352;2023-11-22T06:42:52;4.13;;;1.45;;
43311;SDS011;30041;48.300;16.352;2023-11-22T06:45:18;6.82;;;1.38;;
43311;SDS011;30041;48.300;16.352;2023-11-22T06:47:43;7.97;;;1.73;;
43311;SDS011;30041;48.300;16.352;2023-11-22T06:50:09;5.05;;;1.40;;
43311;SDS011;30041;48.300;16.352;2023-11-22T06:52:35;3.20;;;1.30;;
43311;SDS011;30041;48.300;16.352;2023-11-22T06:55:04;3.72;;;1.60;;
43311;SDS011;30041;48.300;16.352;2023-11-22T06:57:30;4.97;;;1.70;;
43311;SDS011;30041;48.300;16.352;2023-11-22T06:59:56;4.40;;;1.38;;
43311;SDS011;30041;48.300;16.352;2023-11-22T07:02:22;4.85;;;1.40;;
43311;SDS011;30041;48.300;16.352;2023-11-22T07:04:47;3.78;;;1.50;;
43311;SDS011;30041;48.300;16.352;2023-11-22T07:07:13;6.75;;;1.40;;
43311;SDS011;30041;48.300;16.352;2023-11-22T07:09:41;3.25;;;1.20;;
43311;SDS011;30041;48.300;16.352;2023-11-22T07:12:07;6.57;;;1.60;;
43311;SDS011;30041;48.300;16.352;2023-11-22T07:14:33;5.88;;;1.40;;
43311;SDS011;30041;48.300;16.352;2023-11-22T07:16:58;4.45;;;1.40;;
43311;SDS011;30041;48.300;16.352;2023-11-22T07:19:23;5.80;;;1.33;;
43311;SDS011;30041;48.300;16.352;2023-11-22T07:21:49;6.80;;;1.60;;
43311;SDS011;30041;48.300;16.352;2023-11-22T07:24:14;4.30;;;1.40;;
43311;SDS011;30041;48.300;16.352;2023-11-22T07:26:40;4.35;;;1.88;;
43311;SDS011;30041;48.300;16.352;2023-11-22T07:29:05;4.07;;;1.90;;
43311;SDS011;30041;48.300;16.352;2023-11-22T07:31:30;3.95;;;1.45;;
43311;SDS011;30041;48.300;16.352;2023-11-22T07:33:56;4.03;;;1.30;;
43311;SDS011;30041;48.300;16.352;2023-11-22T07:36:21;7.82;;;1.50;;
43311;SDS011;30041;48.300;16.352;2023-11-22T07:38:47;4.60;;;1.45;;
43311;SDS011;30041;48.300;16.352;2023-11-22T07:41:12;3.97;;;1.50;;
43311;SDS011;30041;48.300;16.352;2023-11-22T07:43:37;3.80;;;1.30;;
43311;SDS011;30041;48.300;16.352;2023-11-22T07:46:07;3.75;;;1.50;;
43311;SDS011;30041;48.300;16.352;2023-11-22T07:48:33;4.25;;;1.30;;
43311;SDS011;30041;48.300;16.352;2023-11-22T07:50:58;2.78;;;1.60;;
43311;SDS011;30041;48.300;16.352;2023-11-22T07:53:23;3.15;;;1.15;;
43311;SDS011;30041;48.300;16.352;2023-11-22T07:55:49;3.25;;;1.15;;
43311;SDS011;30041;48.300;16.352;2023-11-22T07:58:14;3.20;;;1.50;;
43311;SDS011;30041;48.300;16.352;2023-11-22T08:00:40;3.47;;;1.50;;
43311;SDS011;30041;48.300;16.352;2023-11-22T08:03:05;3.72;;;1.40;;
43311;SDS011;30041;48.300;16.352;2023-11-22T08:05:31;3.13;;;1.15;;
43311;SDS011;30041;48.300;16.352;2023-11-22T08:07:56;3.90;;;1.30;;
43311;SDS011;30041;48.300;16.352;2023-11-22T08:10:22;3.42;;;1.33;;
43311;SDS011;30041;48.300;16.352;2023-11-22T08:12:47;4.05;;;1.35;;
43311;SDS011;30041;48.300;16.352;2023-11-22T08:15:13;5.75;;;1.67;;
43311;SDS011;30041;48.300;16.352;2023-11-22T08:17:39;2.85;;;1.35;;
43311;SDS011;30041;48.300;16.352;2023-11-22T08:20:05;3.15;;;1.38;;
43311;SDS011;30041;48.300;16.352;2023-11-22T08:22:32;2.67;;;1.38;;
43311;SDS011;30041;48.300;16.352;2023-11-22T08:24:57;2.92;;;1.00;;
43311;SDS011;30041;48.300;16.352;2023-11-22T08:27:23;3.10;;;1.30;;
43311;SDS011;30041;48.300;16.352;2023-11-22T08:29:48;3.20;;;1.23;;
43311;SDS011;30041;48.300;16.352;2023-11-22T08:32:14;2.60;;;1.08;;
43311;SDS011;30041;48.300;16.352;2023-11-22T08:34:39;2.65;;;1.15;;
43311;SDS011;30041;48.300;16.352;2023-11-22T08:37:04;4.18;;;1.50;;
43311;SDS011;30041;48.300;16.352;2023-11-22T08:39:30;3.15;;;1.30;;
43311;SDS011;30041;48.300;16.352;2023-11-22T08:41:55;2.75;;;1.10;;
43311;SDS011;30041;48.300;16.352;2023-11-22T08:44:21;1.95;;;1.00;;
43311;SDS011;30041;48.300;16.352;2023-11-22T08:46:46;3.08;;;1.13;;
43311;SDS011;30041;48.300;16.352;2023-11-22T08:49:11;3.08;;;1.25;;
43311;SDS011;30041;48.300;16.352;2023-11-22T08:51:37;3.50;;;1.27;;
43311;SDS011;30041;48.300;16.352;2023-11-22T08:54:02;2.58;;;1.17;;
43311;SDS011;30041;48.300;16.352;2023-11-22T08:56:28;2.80;;;1.15;;
43311;SDS011;30041;48.300;16.352;2023-11-22T08:58:53;2.05;;;1.10;;
43311;SDS011;30041;48.300;16.352;2023-11-22T09:01:19;3.03;;;1.10;;
43311;SDS011;30041;48.300;16.352;2023-11-22T09:03:44;2.97;;;1.10;;
43311;SDS011;30041;48.300;16.352;2023-11-22T09:06:09;2.83;;;1.15;;
43311;SDS011;30041;48.300;16.352;2023-11-22T09:08:35;2.85;;;1.45;;
43311;SDS011;30041;48.300;16.352;2023-11-22T09:11:00;2.15;;;1.08;;
43311;SDS011;30041;48.300;16.352;2023-11-22T09:13:26;2.28;;;1.00;;
43311;SDS011;30041;48.300;16.352;2023-11-22T09:15:51;2.13;;;1.17;;
43311;SDS011;30041;48.300;16.352;2023-11-22T09:18:16;2.05;;;1.20;;
43311;SDS011;30041;48.300;16.352;2023-11-22T09:20:42;2.75;;;1.00;;
43311;SDS011;30041;48.300;16.352;2023-11-22T09:23:07;2.00;;;1.00;;
43311;SDS011;30041;48.300;16.352;2023-11-22T09:25:33;2.55;;;1.00;;
43311;SDS011;30041;48.300;16.352;2023-11-22T09:27:58;2.42;;;1.15;;
43311;SDS011;30041;48.300;16.352;2023-11-22T09:30:24;2.22;;;1.20;;
43311;SDS011;30041;48.300;16.352;2023-11-22T09:32:54;2.97;;;1.20;;
43311;SDS011;30041;48.300;16.352;2023-11-22T09:35:23;3.90;;;1.25;;
43311;SDS011;30041;48.300;16.352;2023-11-22T09:37:48;1.77;;;1.05;;
43311;SDS011;30041;48.300;16.352;2023-11-22T09:40:13;2.47;;;1.13;;
43311;SDS011;30041;48.300;16.352;2023-11-22T09:42:43;2.05;;;1.02;;
43311;SDS011;30041;48.300;16.352;2023-11-22T09:45:11;3.22;;;1.13;;
43311;SDS011;30041;48.300;16.352;2023-11-22T09:47:36;2.38;;;1.10;;
43311;SDS011;30041;48.300;16.352;2023-11-22T09:50:02;2.00;;;1.10;;
43311;SDS011;30041;48.300;16.352;2023-11-22T09:52:30;1.90;;;1.00;;
43311;SDS011;30041;48.300;16.352;2023-11-22T09:54:59;2.42;;;1.20;;
43311;SDS011;30041;48.300;16.352;2023-11-22T09:57:26;2.63;;;1.10;;
43311;SDS011;30041;48.300;16.352;2023-11-22T09:59:54;3.08;;;1.30;;
43311;SDS011;30041;48.300;16.352;2023-11-22T10:02:22;1.95;;;1.10;;
43311;SDS011;30041;48.300;16.352;2023-11-22T10:04:48;2.53;;;1.05;;
43311;SDS011;30041;48.300;16.352;2023-11-22T10:07:14;2.58;;;1.20;;
43311;SDS011;30041;48.300;16.352;2023-11-22T10:09:39;2.67;;;1.23;;
43311;SDS011;30041;48.300;16.352;2023-11-22T10:12:05;1.77;;;1.20;;
43311;SDS011;30041;48.300;16.352;2023-11-22T10:14:30;2.80;;;1.20;;
43311;SDS011;30041;48.300;16.352;2023-11-22T10:16:59;1.63;;;1.00;;
43311;SDS011;30041;48.300;16.352;2023-11-22T10:19:25;1.80;;;1.00;;
43311;SDS011;30041;48.300;16.352;2023-11-22T10:22:04;2.13;;;1.00;;
43311;SDS011;30041;48.300;16.352;2023-11-22T10:24:31;3.10;;;1.30;;
43311;SDS011;30041;48.300;16.352;2023-11-22T10:26:57;1.90;;;1.20;;
43311;SDS011;30041;48.300;16.352;2023-11-22T10:29:22;1.95;;;1.20;;
43311;SDS011;30041;48.300;16.352;2023-11-22T10:31:50;1.55;;;1.00;;
43311;SDS011;30041;48.300;16.352;2023-11-22T10:34:18;1.75;;;1.00;;
43311;SDS011;30041;48.300;16.352;2023-11-22T10:36:45;1.48;;;0.93;;
43311;SDS011;30041;48.300;16.352;2023-11-22T10:39:12;1.50;;;1.10;;
43311;SDS011;30041;48.300;16.352;2023-11-22T10:41:37;2.92;;;1.08;;
43311;SDS011;30041;48.300;16.352;2023-11-22T10:44:03;2.75;;;1.10;;
43311;SDS011;30041;48.300;16.352;2023-11-22T10:46:30;2.63;;;1.10;;
43311;SDS011;30041;48.300;16.352;2023-11-22T10:48:55;1.85;;;1.10;;
43311;SDS011;30041;48.300;16.352;2023-11-22T10:51:21;2.22;;;1.10;;
43311;SDS011;30041;48.300;16.352;2023-11-22T10:53:48;2.10;;;1.10;;
43311;SDS011;30041;48.300;16.352;2023-11-22T10:56:14;2.97;;;1.25;;
43311;SDS011;30041;48.300;16.352;2023-11-22T10:58:46;2.45;;;1.10;;
43311;SDS011;30041;48.300;16.352;2023-11-22T11:01:13;1.52;;;1.00;;
43311;SDS011;30041;48.300;16.352;2023-11-22T11:03:40;1.50;;;1.00;;
43311;SDS011;30041;48.300;16.352;2023-11-22T11:06:10;1.60;;;1.02;;
43311;SDS011;30041;48.300;16.352;2023-11-22T11:08:37;1.80;;;1.10;;
43311;SDS011;30041;48.300;16.352;2023-11-22T11:11:04;1.88;;;1.15;;
43311;SDS011;30041;48.300;16.352;2023-11-22T11:13:30;1.50;;;1.02;;
43311;SDS011;30041;48.300;16.352;2023-11-22T11:15:55;1.83;;;1.10;;
43311;SDS011;30041;48.300;16.352;2023-11-22T11:18:22;1.42;;;1.08;;
43311;SDS011;30041;48.300;16.352;2023-11-22T11:20:49;1.85;;;1.08;;
43311;SDS011;30041;48.300;16.352;2023-11-22T11:23:16;1.80;;;1.02;;
43311;SDS011;30041;48.300;16.352;2023-11-22T11:25:42;2.70;;;1.10;;
43311;SDS011;30041;48.300;16.352;2023-11-22T11:28:11;1.60;;;1.00;;
43311;SDS011;30041;48.300;16.352;2023-11-22T11:30:40;2.35;;;1.23;;
43311;SDS011;30041;48.300;16.352;2023-11-22T11:33:06;1.80;;;1.10;;
43311;SDS011;30041;48.300;16.352;2023-11-22T11:35:38;1.85;;;1.10;;
43311;SDS011;30041;48.300;16.352;2023-11-22T11:38:08;1.52;;;1.10;;
43311;SDS011;30041;48.300;16.352;2023-11-22T11:40:33;1.65;;;1.15;;
43311;SDS011;30041;48.300;16.352;2023-11-22T11:42:59;2.42;;;1.30;;
43311;SDS011;30041;48.300;16.352;2023-11-22T11:45:25;1.60;;;1.02;;
43311;SDS011;30041;48.300;16.352;2023-11-22T11:47:52;1.48;;;1.08;;
43311;SDS011;30041;48.300;16.352;2023-11-22T11:50:17;1.73;;;1.20;;
43311;SDS011;30041;48.300;16.352;2023-11-22T11:52:42;2.05;;;1.33;;
43311;SDS011;30041;48.300;16.352;2023-11-22T11:55:08;1.42;;;1.00;;
43311;SDS011;30041;48.300;16.352;2023-11-22T11:57:33;1.70;;;1.10;;
43311;SDS011;30041;48.300;16.352;2023-11-22T11:59:59;1.65;;;1.13;;
43311;SDS011;30041;48.300;16.352;2023-11-22T12:02:27;2.45;;;1.25;;
43311;SDS011;30041;48.300;16.352;2023-11-22T12:04:52;2.00;;;1.20;;
43311;SDS011;30041;48.300;16.352;2023-11-22T12:07:18;2.10;;;1.20;;
43311;SDS011;30041;48.300;16.352;2023-11-22T12:09:43;2.30;;;1.20;;
43311;SDS011;30041;48.300;16.352;2023-11-22T12:12:09;1.73;;;1.15;;
43311;SDS011;30041;48.300;16.352;2023-11-22T12:14:34;1.27;;;0.95;;
43311;SDS011;30041;48.300;16.352;2023-11-22T12:17:03;2.00;;;1.20;;
43311;SDS011;30041;48.300;16.352;2023-11-22T12:19:29;1.33;;;1.00;;
43311;SDS011;30041;48.300;16.352;2023-11-22T12:21:54;1.90;;;1.15;;
43311;SDS011;30041;48.300;16.352;2023-11-22T12:24:20;2.28;;;1.10;;
43311;SDS011;30041;48.300;16.352;2023-11-22T12:26:45;1.98;;;1.10;;
43311;SDS011;30041;48.300;16.352;2023-11-22T12:29:12;2.25;;;1.20;;
43311;SDS011;30041;48.300;16.352;2023-11-22T12:31:43;1.52;;;1.10;;
43311;SDS011;30041;48.300;16.352;2023-11-22T12:34:09;1.92;;;1.20;;
43311;SDS011;30041;48.300;16.352;2023-11-22T12:36:35;1.85;;;1.10;;
43311;SDS011;30041;48.300;16.352;2023-11-22T12:39:00;1.80;;;1.00;;
43311;SDS011;30041;48.300;16.352;2023-11-22T12:41:32;2.08;;;1.08;;
43311;SDS011;30041;48.300;16.352;2023-11-22T12:44:06;2.50;;;1.70;;
43311;SDS011;30041;48.300;16.352;2023-11-22T12:46:44;3.72;;;2.10;;
43311;SDS011;30041;48.300;16.352;2023-11-22T12:49:14;2.40;;;1.38;;
43311;SDS011;30041;48.300;16.352;2023-11-22T12:51:45;2.42;;;1.63;;
43311;SDS011;30041;48.300;16.352;2023-11-22T12:54:16;2.22;;;1.40;;
43311;SDS011;30041;48.300;16.352;2023-11-22T12:56:42;2.92;;;1.50;;
43311;SDS011;30041;48.300;16.352;2023-11-22T12:59:07;3.83;;;1.42;;
43311;SDS011;30041;48.300;16.352;2023-11-22T13:01:34;3.22;;;1.50;;
43311;SDS011;30041;48.300;16.352;2023-11-22T13:03:59;3.17;;;1.63;;
43311;SDS011;30041;48.300;16.352;2023-11-22T13:06:25;2.20;;;1.30;;
43311;SDS011;30041;48.300;16.352;2023-11-22T13:08:53;3.50;;;1.30;;
43311;SDS011;30041;48.300;16.352;2023-11-22T13:11:18;2.00;;;1.30;;
43311;SDS011;30041;48.300;16.352;2023-11-22T13:13:44;1.83;;;1.40;;
43311;SDS011;30041;48.300;16.352;2023-11-22T13:16:09;2.35;;;1.60;;
43311;SDS011;30041;48.300;16.352;2023-11-22T13:18:35;2.70;;;1.38;;
43311;SDS011;30041;48.300;16.352;2023-11-22T13:21:00;2.28;;;1.30;;
43311;SDS011;30041;48.300;16.352;2023-11-22T13:23:25;2.45;;;1.52;;
43311;SDS011;30041;48.300;16.352;2023-11-22T13:25:51;2.80;;;1.55;;
43311;SDS011;30041;48.300;16.352;2023-11-22T13:28:16;1.80;;;1.30;;
43311;SDS011;30041;48.300;16.352;2023-11-22T13:30:41;1.95;;;1.38;;
43311;SDS011;30041;48.300;16.352;2023-11-22T13:33:07;3.10;;;1.30;;
43311;SDS011;30041;48.300;16.352;2023-11-22T13:35:32;2.25;;;1.40;;
43311;SDS011;30041;48.300;16.352;2023-11-22T13:37:58;2.72;;;1.40;;
43311;SDS011;30041;48.300;16.352;2023-11-22T13:40:24;3.05;;;1.70;;
43311;SDS011;30041;48.300;16.352;2023-11-22T13:42:53;2.17;;;1.60;;
43311;SDS011;30041;48.300;16.352;2023-11-22T13:45:19;1.95;;;1.40;;
43311;SDS011;30041;48.300;16.352;2023-11-22T13:47:46;2.78;;;1.42;;
43311;SDS011;30041;48.300;16.352;2023-11-22T13:50:15;2.42;;;1.58;;
43311;SDS011;30041;48.300;16.352;2023-11-22T13:52:41;4.00;;;1.58;;
43311;SDS011;30041;48.300;16.352;2023-11-22T13:55:07;1.77;;;1.20;;
43311;SDS011;30041;48.300;16.352;2023-11-22T13:57:32;2.58;;;1.45;;
43311;SDS011;30041;48.300;16.352;2023-11-22T13:59:58;3.53;;;1.45;;
43311;SDS011;30041;48.300;16.352;2023-11-22T14:02:23;4.78;;;1.67;;
43311;SDS011;30041;48.300;16.352;2023-11-22T14:04:48;3.55;;;1.40;;
43311;SDS011;30041;48.300;16.352;2023-11-22T14:07:14;3.50;;;1.80;;
43311;SDS011;30041;48.300;16.352;2023-11-22T14:09:39;2.30;;;1.40;;
43311;SDS011;30041;48.300;16.352;2023-11-22T14:12:05;3.00;;;1.60;;
43311;SDS011;30041;48.300;16.352;2023-11-22T14:14:30;2.88;;;1.60;;
43311;SDS011;30041;48.300;16.352;2023-11-22T14:16:56;2.58;;;1.48;;
43311;SDS011;30041;48.300;16.352;2023-11-22T14:19:21;2.40;;;1.63;;
43311;SDS011;30041;48.300;16.352;2023-11-22T14:21:46;3.03;;;1.60;;
43311;SDS011;30041;48.300;16.352;2023-11-22T14:24:12;2.10;;;1.33;;
43311;SDS011;30041;48.300;16.352;2023-11-22T14:26:37;2.33;;;1.50;;
43311;SDS011;30041;48.300;16.352;2023-11-22T14:29:03;2.10;;;1.33;;